createdAt,value
2023-03-02T00:01:51.215Z,66.22
2023-03-02T00:04:28.408Z,66.30
2023-03-02T00:07:00.722Z,66.43
2023-03-02T00:09:30.143Z,66.42
2023-03-02T00:11:58.154Z,66.62
2023-03-02T00:14:26.100Z,66.60
2023-03-02T00:16:53.923Z,66.51
2023-03-02T00:19:21.830Z,66.72
2023-03-02T00:21:49.857Z,66.73
2023-03-02T00:24:17.736Z,66.66
2023-03-02T00:26:45.815Z,66.86
2023-03-02T00:29:14.262Z,66.95
2023-03-02T00:31:42.188Z,66.89
2023-03-02T00:34:10.137Z,66.81
2023-03-02T00:36:38.084Z,66.91
2023-03-02T00:39:06.016Z,66.90
2023-03-02T00:41:33.914Z,67.06
2023-03-02T00:44:02.031Z,66.98
2023-03-02T00:46:30.158Z,66.84
2023-03-02T00:48:58.246Z,66.94
2023-03-02T00:51:26.168Z,67.06
2023-03-02T00:53:54.054Z,67.10
2023-03-02T00:56:21.937Z,67.05
2023-03-02T00:58:50.285Z,67.30
2023-03-02T01:01:18.964Z,67.45
2023-03-02T01:03:49.807Z,67.63
2023-03-02T01:06:19.626Z,67.62
2023-03-02T01:08:47.925Z,67.54
2023-03-02T01:11:19.156Z,67.58
2023-03-02T01:13:47.682Z,67.58
2023-03-02T01:16:16.018Z,67.50
2023-03-02T01:18:44.120Z,67.61
2023-03-02T01:21:14.715Z,67.65
2023-03-02T01:23:42.986Z,67.73
2023-03-02T01:26:10.974Z,67.64
2023-03-02T01:28:38.909Z,67.64
2023-03-02T01:31:06.863Z,67.59
2023-03-02T01:33:35.270Z,67.58
2023-03-02T01:36:03.433Z,67.57
2023-03-02T01:38:31.488Z,67.64
2023-03-02T01:40:59.401Z,67.68
2023-03-02T01:43:29.447Z,67.76
2023-03-02T01:46:26.669Z,67.71
2023-03-02T01:49:12.823Z,67.86
2023-03-02T01:51:51.788Z,67.92
2023-03-02T01:54:23.271Z,67.72
2023-03-02T01:56:59.502Z,67.78
2023-03-02T01:59:30.737Z,67.79
2023-03-02T02:02:02.800Z,67.90
2023-03-02T02:04:32.991Z,67.94
2023-03-02T02:07:03.850Z,68.07
2023-03-02T02:09:36.583Z,68.10
2023-03-02T02:12:05.894Z,68.24
2023-03-02T02:14:35.038Z,68.17
2023-03-02T02:17:03.060Z,68.23
2023-03-02T02:19:49.857Z,68.34
2023-03-02T02:22:28.618Z,68.32
2023-03-02T02:25:02.655Z,68.43
2023-03-02T02:27:33.604Z,68.44
2023-03-02T02:30:04.525Z,68.52
2023-03-02T02:32:36.548Z,68.46
2023-03-02T02:35:11.369Z,68.52
2023-03-02T02:37:44.822Z,68.48
2023-03-02T02:40:49.479Z,68.36
2023-03-02T02:43:21.398Z,68.49
2023-03-02T02:45:53.895Z,68.51
2023-03-02T02:48:24.331Z,68.42
2023-03-02T02:51:00.226Z,68.34
2023-03-02T02:53:42.988Z,68.35
2023-03-02T02:56:13.156Z,68.30
2023-03-02T02:58:49.196Z,68.42
2023-03-02T03:01:20.544Z,68.46
2023-03-02T03:04:01.680Z,68.47
2023-03-02T03:06:42.221Z,68.53
2023-03-02T03:09:11.864Z,68.55
2023-03-02T03:11:50.446Z,68.66
2023-03-02T03:14:22.330Z,68.91
2023-03-02T03:16:52.352Z,68.91
2023-03-02T03:19:26.350Z,68.81
2023-03-02T03:21:57.899Z,68.80
2023-03-02T03:24:28.666Z,68.84
2023-03-02T03:26:57.959Z,68.94
2023-03-02T03:29:28.576Z,68.85
2023-03-02T03:32:01.082Z,68.93
2023-03-02T03:34:30.991Z,69.00
2023-03-02T03:37:01.845Z,68.88
2023-03-02T03:39:32.954Z,69.00
2023-03-02T03:42:01.419Z,68.97
2023-03-02T03:44:30.131Z,69.08
2023-03-02T03:46:58.681Z,69.02
2023-03-02T03:49:27.050Z,68.95
2023-03-02T03:51:55.709Z,68.94
2023-03-02T03:54:24.106Z,69.00
2023-03-02T03:56:52.160Z,68.92
2023-03-02T03:59:23.215Z,68.86
2023-03-02T04:02:00.047Z,68.97
2023-03-02T04:04:35.555Z,69.04
2023-03-02T04:07:10.227Z,68.86
2023-03-02T04:09:39.314Z,68.86
2023-03-02T04:12:09.705Z,69.09
2023-03-02T04:14:38.912Z,69.29
2023-03-02T04:17:07.155Z,69.30
2023-03-02T04:19:38.079Z,69.29
2023-03-02T04:22:06.652Z,69.44
2023-03-02T04:24:35.243Z,69.51
2023-03-02T04:27:04.710Z,69.50
2023-03-02T04:29:34.489Z,69.51
2023-03-02T04:32:03.968Z,69.65
2023-03-02T04:34:34.123Z,69.60
2023-03-02T04:37:03.024Z,69.53
2023-03-02T04:39:31.048Z,69.63
2023-03-02T04:41:59.248Z,69.65
2023-03-02T04:44:27.160Z,69.84
2023-03-02T04:46:55.097Z,69.80
2023-03-02T04:49:23.082Z,69.79
2023-03-02T04:51:51.029Z,69.81
2023-03-02T04:54:22.714Z,69.84
2023-03-02T04:56:51.677Z,69.77
2023-03-02T04:59:24.145Z,69.77
2023-03-02T05:01:55.048Z,69.69
2023-03-02T05:04:23.342Z,69.48
2023-03-02T05:06:51.246Z,69.40
2023-03-02T05:09:19.666Z,69.50
2023-03-02T05:11:47.677Z,69.66
2023-03-02T05:14:15.558Z,69.82
2023-03-02T05:16:43.600Z,69.74
2023-03-02T05:19:12.551Z,69.83
2023-03-02T05:21:40.799Z,69.93
2023-03-02T05:24:08.767Z,69.91
2023-03-02T05:26:37.434Z,69.91
2023-03-02T05:29:06.020Z,70.06
2023-03-02T05:31:42.867Z,70.14
2023-03-02T05:34:12.699Z,70.08
2023-03-02T05:36:40.715Z,69.94
2023-03-02T05:39:09.472Z,69.90
2023-03-02T05:41:38.048Z,69.94
2023-03-02T05:44:09.461Z,69.97
2023-03-02T05:46:38.073Z,70.00
2023-03-02T05:49:06.415Z,70.15
2023-03-02T05:51:34.340Z,70.13
2023-03-02T05:54:02.355Z,70.26
2023-03-02T05:56:30.462Z,70.28
2023-03-02T05:58:58.536Z,70.42
2023-03-02T06:01:26.514Z,70.58
2023-03-02T06:03:54.353Z,70.54
2023-03-02T06:06:22.262Z,70.62
2023-03-02T06:08:50.151Z,70.54
2023-03-02T06:11:18.040Z,70.65
2023-03-02T06:13:45.978Z,70.68
2023-03-02T06:16:13.974Z,70.81
2023-03-02T06:18:41.907Z,70.83
2023-03-02T06:21:10.094Z,70.96
2023-03-02T06:23:38.079Z,71.17
2023-03-02T06:26:10.679Z,71.32
2023-03-02T06:28:51.562Z,71.30
2023-03-02T06:31:21.861Z,71.35
2023-03-02T06:33:49.945Z,71.22
2023-03-02T06:36:18.247Z,71.31
2023-03-02T06:38:46.186Z,71.50
2023-03-02T06:41:14.155Z,71.72
2023-03-02T06:43:42.382Z,71.89
2023-03-02T06:46:11.299Z,71.85
2023-03-02T06:48:39.288Z,71.85
2023-03-02T06:51:08.018Z,71.88
2023-03-02T06:53:35.914Z,71.75
2023-03-02T06:56:04.465Z,71.05
2023-03-02T06:58:32.379Z,70.35
2023-03-02T07:01:00.385Z,70.46
2023-03-02T07:03:28.408Z,70.50
2023-03-02T07:05:56.312Z,70.98
2023-03-02T07:08:24.283Z,71.53
2023-03-02T07:10:52.353Z,71.52
2023-03-02T07:13:20.480Z,71.62
2023-03-02T07:15:48.435Z,71.81
2023-03-02T07:18:16.365Z,71.95
2023-03-02T07:20:44.238Z,71.76
2023-03-02T07:23:12.261Z,71.60
2023-03-02T07:25:40.165Z,71.54
2023-03-02T07:28:08.053Z,71.52
2023-03-02T07:30:36.025Z,71.51
2023-03-02T07:33:03.952Z,71.38
2023-03-02T07:35:31.836Z,71.16
2023-03-02T07:37:59.738Z,71.11
2023-03-02T07:40:27.650Z,71.11
2023-03-02T07:42:55.534Z,71.22
2023-03-02T07:45:25.038Z,71.17
2023-03-02T07:47:53.052Z,70.93
2023-03-02T07:50:20.954Z,70.76
2023-03-02T07:52:48.813Z,70.83
2023-03-02T07:55:16.752Z,70.93
2023-03-02T07:57:45.953Z,70.81
2023-03-02T08:00:14.863Z,70.50
2023-03-02T08:02:43.303Z,70.59
2023-03-02T08:05:12.222Z,70.44
2023-03-02T08:07:43.987Z,70.27
2023-03-02T08:10:12.078Z,70.25
2023-03-02T08:12:40.492Z,69.98
2023-03-02T08:15:09.690Z,69.74
2023-03-02T08:17:37.641Z,69.59
2023-03-02T08:20:06.301Z,69.90
2023-03-02T08:22:34.403Z,69.96
2023-03-02T08:25:02.762Z,69.96
2023-03-02T08:27:30.712Z,69.38
2023-03-02T08:29:58.655Z,69.17
2023-03-02T08:32:26.519Z,68.89
2023-03-02T08:34:54.688Z,68.84
2023-03-02T08:37:22.571Z,68.76
2023-03-02T08:39:51.826Z,68.52
2023-03-02T08:42:19.803Z,68.52
2023-03-02T08:44:47.675Z,68.24
2023-03-02T08:47:15.635Z,68.14
2023-03-02T08:49:43.596Z,68.10
2023-03-02T08:52:11.491Z,67.91
2023-03-02T08:54:40.745Z,68.06
2023-03-02T08:57:11.893Z,67.99
2023-03-02T08:59:40.243Z,67.72
2023-03-02T09:02:11.285Z,67.26
2023-03-02T09:04:39.496Z,67.03
2023-03-02T09:07:07.519Z,66.97
2023-03-02T09:09:35.906Z,66.79
2023-03-02T09:12:03.998Z,66.52
2023-03-02T09:14:31.868Z,66.61
2023-03-02T09:16:59.897Z,66.60
2023-03-02T09:19:27.933Z,66.61
2023-03-02T09:21:55.861Z,66.35
2023-03-02T09:24:23.738Z,66.28
2023-03-02T09:26:51.679Z,66.28
2023-03-02T09:29:19.539Z,66.05
2023-03-02T09:31:47.462Z,65.99
2023-03-02T09:34:15.290Z,65.93
2023-03-02T09:36:43.216Z,65.78
2023-03-02T09:39:12.559Z,65.58
2023-03-02T09:41:57.087Z,65.50
2023-03-02T09:45:00.250Z,65.53
2023-03-02T09:47:38.666Z,65.38
2023-03-02T09:50:06.519Z,65.22
2023-03-02T09:53:03.708Z,65.18
2023-03-02T09:55:36.298Z,64.98
2023-03-02T09:58:16.220Z,65.00
2023-03-02T10:00:45.970Z,64.93
2023-03-02T10:03:20.446Z,64.69
2023-03-02T10:05:51.202Z,64.66
2023-03-02T10:08:22.854Z,64.70
2023-03-02T10:11:12.794Z,64.41
2023-03-02T10:13:47.878Z,64.18
2023-03-02T10:16:31.673Z,64.31
2023-03-02T10:19:12.633Z,64.05
2023-03-02T10:21:46.099Z,63.83
2023-03-02T10:24:29.197Z,63.66
2023-03-02T10:27:28.815Z,63.48
2023-03-02T10:30:08.051Z,63.33
2023-03-02T10:32:41.960Z,63.24
2023-03-02T10:35:29.910Z,62.95
2023-03-02T10:38:04.623Z,62.69
2023-03-02T10:40:52.928Z,62.28
2023-03-02T10:43:45.525Z,62.09
2023-03-02T10:46:14.434Z,61.95
2023-03-02T10:48:53.194Z,61.97
2023-03-02T10:51:32.937Z,61.97
2023-03-02T10:54:07.151Z,61.91
2023-03-02T10:56:35.894Z,61.57
2023-03-02T10:59:27.899Z,61.41
2023-03-02T11:02:18.605Z,61.62
2023-03-02T11:04:46.654Z,61.27
2023-03-02T11:07:20.477Z,60.85
2023-03-02T11:09:57.395Z,60.80
2023-03-02T11:12:25.500Z,60.61
2023-03-02T11:15:27.133Z,60.62
2023-03-02T11:18:15.230Z,60.45
2023-03-02T11:20:47.186Z,60.29
2023-03-02T11:23:33.351Z,60.59
2023-03-02T11:26:08.019Z,60.45
2023-03-02T11:28:43.339Z,60.20
2023-03-02T11:31:22.443Z,60.13
2023-03-02T11:34:07.924Z,60.03
2023-03-02T11:37:03.671Z,59.92
2023-03-02T11:39:55.057Z,59.63
2023-03-02T11:42:30.153Z,59.61
2023-03-02T11:45:03.741Z,59.62
2023-03-02T11:47:32.930Z,59.54
2023-03-02T11:50:05.383Z,59.15
2023-03-02T11:52:39.023Z,58.72
2023-03-02T11:55:17.390Z,58.84
2023-03-02T11:57:49.955Z,58.74
2023-03-02T12:00:29.891Z,58.70
2023-03-02T12:03:03.058Z,58.30
2023-03-02T12:05:35.717Z,58.15
2023-03-02T12:08:28.519Z,58.14
2023-03-02T12:11:27.064Z,58.24
2023-03-02T12:13:54.891Z,58.16
2023-03-02T12:16:35.944Z,58.08
2023-03-02T12:19:17.516Z,57.88
2023-03-02T12:22:06.994Z,57.75
2023-03-02T12:24:37.741Z,57.62
2023-03-02T12:27:21.009Z,57.61
2023-03-02T12:29:55.471Z,57.38
2023-03-02T12:32:27.404Z,57.14
2023-03-02T12:35:01.624Z,57.15
2023-03-02T12:37:37.614Z,57.16
2023-03-02T12:40:14.767Z,56.96
2023-03-02T12:43:01.336Z,56.98
2023-03-02T12:46:03.589Z,56.50
2023-03-02T12:49:01.956Z,56.56
2023-03-02T12:51:43.892Z,56.53
2023-03-02T12:54:20.693Z,56.52
2023-03-02T12:56:49.572Z,56.55
2023-03-02T12:59:23.509Z,56.94
2023-03-02T13:01:52.363Z,56.91
2023-03-02T13:04:26.048Z,56.95
2023-03-02T13:06:54.558Z,56.86
2023-03-02T13:09:23.137Z,56.78
2023-03-02T13:11:54.809Z,56.52
2023-03-02T13:14:28.151Z,56.30
2023-03-02T13:17:03.265Z,56.38
2023-03-02T13:19:32.265Z,56.37
2023-03-02T13:22:00.753Z,56.48
2023-03-02T13:24:51.499Z,56.43
2023-03-02T13:27:22.731Z,56.23
2023-03-02T13:29:57.892Z,55.95
2023-03-02T13:32:35.043Z,55.96
2023-03-02T13:35:03.546Z,56.05
2023-03-02T13:37:39.333Z,55.98
2023-03-02T13:40:27.365Z,55.71
2023-03-02T13:42:55.725Z,55.44
2023-03-02T13:45:23.807Z,55.47
2023-03-02T13:47:53.698Z,55.50
2023-03-02T13:50:27.953Z,55.37
2023-03-02T13:52:58.638Z,55.56
2023-03-02T13:55:26.786Z,55.74
2023-03-02T13:57:55.981Z,55.81
2023-03-02T14:00:31.099Z,55.71
2023-03-02T14:02:59.380Z,55.63
2023-03-02T14:05:33.279Z,55.53
2023-03-02T14:08:06.950Z,55.50
2023-03-02T14:10:34.847Z,55.37
2023-03-02T14:13:08.557Z,55.34
2023-03-02T14:15:42.226Z,55.25
2023-03-02T14:18:16.163Z,55.27
2023-03-02T14:20:44.073Z,55.38
2023-03-02T14:23:12.097Z,55.28
2023-03-02T14:25:40.127Z,55.23
2023-03-02T14:28:13.005Z,55.04
2023-03-02T14:30:44.109Z,55.11
2023-03-02T14:33:17.595Z,54.98
2023-03-02T14:35:45.832Z,54.87
2023-03-02T14:38:13.996Z,55.02
2023-03-02T14:40:42.072Z,54.99
2023-03-02T14:43:10.418Z,54.81
2023-03-02T14:45:38.335Z,54.80
2023-03-02T14:48:06.233Z,54.72
2023-03-02T14:50:38.552Z,54.72
2023-03-02T14:53:12.644Z,54.90
2023-03-02T14:55:42.186Z,54.93
2023-03-02T14:58:32.683Z,54.95
2023-03-02T15:01:01.203Z,54.93
2023-03-02T15:03:29.437Z,55.08
2023-03-02T15:06:02.075Z,55.22
2023-03-02T15:08:30.489Z,55.18
2023-03-02T15:10:58.547Z,55.23
2023-03-02T15:13:26.572Z,55.25
2023-03-02T15:15:54.569Z,55.40
2023-03-02T15:18:22.566Z,55.38
2023-03-02T15:20:50.666Z,55.35
2023-03-02T15:23:18.685Z,55.35
2023-03-02T15:25:46.561Z,55.36
2023-03-02T15:28:14.558Z,55.45
2023-03-02T15:30:42.499Z,55.55
2023-03-02T15:33:10.509Z,55.47
2023-03-02T15:35:40.197Z,55.65
2023-03-02T15:38:08.294Z,55.62
2023-03-02T15:40:39.124Z,55.71
2023-03-02T15:43:07.172Z,55.78
2023-03-02T15:45:35.110Z,55.72
2023-03-02T15:48:04.075Z,55.69
2023-03-02T15:50:32.084Z,55.81
2023-03-02T15:53:00.009Z,55.86
2023-03-02T15:55:27.994Z,55.88
2023-03-02T15:57:58.244Z,55.79
2023-03-02T16:00:27.882Z,55.93
2023-03-02T16:02:55.955Z,56.03
2023-03-02T16:05:24.152Z,56.02
2023-03-02T16:07:53.702Z,56.02
2023-03-02T16:10:24.370Z,56.13
2023-03-02T16:12:52.386Z,56.11
2023-03-02T16:15:20.470Z,56.19
2023-03-02T16:17:48.505Z,56.11
2023-03-02T16:20:16.677Z,56.13
2023-03-02T16:22:44.844Z,56.25
2023-03-02T16:25:13.047Z,56.35
2023-03-02T16:27:41.156Z,56.39
2023-03-02T16:30:09.903Z,56.35
2023-03-02T16:32:38.657Z,56.44
2023-03-02T16:35:08.762Z,56.51
2023-03-02T16:37:37.065Z,56.51
2023-03-02T16:40:05.597Z,56.60
2023-03-02T16:42:33.657Z,56.52
2023-03-02T16:45:01.517Z,56.60
2023-03-02T16:47:29.387Z,56.63
2023-03-02T16:49:58.131Z,56.56
2023-03-02T16:52:26.102Z,56.54
2023-03-02T16:54:54.220Z,56.68
2023-03-02T16:57:22.182Z,56.81
2023-03-02T16:59:50.261Z,56.86
2023-03-02T17:02:18.205Z,56.98
2023-03-02T17:04:46.273Z,57.04
2023-03-02T17:07:14.204Z,57.20
2023-03-02T17:09:42.103Z,57.31
2023-03-02T17:12:10.113Z,57.40
2023-03-02T17:14:38.006Z,57.51
2023-03-02T17:17:06.053Z,57.50
2023-03-02T17:19:34.327Z,57.60
2023-03-02T17:22:04.263Z,57.67
2023-03-02T17:24:33.415Z,57.81
2023-03-02T17:27:01.505Z,57.80
2023-03-02T17:29:29.558Z,57.96
2023-03-02T17:31:57.707Z,58.01
2023-03-02T17:34:31.282Z,58.00
2023-03-02T17:37:00.904Z,58.23
2023-03-02T17:39:29.298Z,58.22
2023-03-02T17:41:57.404Z,58.20
2023-03-02T17:44:25.540Z,58.54
2023-03-02T17:46:53.970Z,59.23
2023-03-02T17:49:22.133Z,59.59
2023-03-02T17:51:50.205Z,59.95
2023-03-02T17:54:18.175Z,60.38
2023-03-02T17:56:46.164Z,60.47
2023-03-02T17:59:14.486Z,60.69
2023-03-02T18:01:44.159Z,60.82
2023-03-02T18:04:12.515Z,61.02
2023-03-02T18:06:40.588Z,61.33
2023-03-02T18:09:08.571Z,61.60
2023-03-02T18:11:36.810Z,61.82
2023-03-02T18:14:04.774Z,61.97
2023-03-02T18:16:34.134Z,62.34
2023-03-02T18:19:03.141Z,62.35
2023-03-02T18:21:31.439Z,62.63
2023-03-02T18:23:59.626Z,62.77
2023-03-02T18:26:27.762Z,62.98
2023-03-02T18:28:55.784Z,62.94
2023-03-02T18:31:24.102Z,63.59
2023-03-02T18:33:52.355Z,63.72
2023-03-02T18:36:20.418Z,63.67
2023-03-02T18:38:48.799Z,63.74
2023-03-02T18:41:16.872Z,63.79
2023-03-02T18:43:44.862Z,64.05
2023-03-02T18:46:19.769Z,64.36
2023-03-02T18:48:50.266Z,64.45
2023-03-02T18:51:19.694Z,64.46
2023-03-02T18:53:48.773Z,64.93
2023-03-02T18:56:17.640Z,64.81
2023-03-02T18:58:46.706Z,65.07
2023-03-02T19:01:15.061Z,65.25
2023-03-02T19:03:45.816Z,65.30
2023-03-02T19:06:15.012Z,65.48
2023-03-02T19:08:43.163Z,65.84
2023-03-02T19:11:11.966Z,65.77
2023-03-02T19:13:39.978Z,65.77
2023-03-02T19:16:08.490Z,65.84
2023-03-02T19:18:37.897Z,65.91
2023-03-02T19:21:06.505Z,65.95
2023-03-02T19:23:34.722Z,66.07
2023-03-02T19:26:04.953Z,66.22
2023-03-02T19:28:35.102Z,66.24
2023-03-02T19:31:06.643Z,66.28
2023-03-02T19:33:35.789Z,66.20
2023-03-02T19:36:05.144Z,66.46
2023-03-02T19:38:33.288Z,66.68
2023-03-02T19:41:02.123Z,66.80
2023-03-02T19:43:30.386Z,66.86
2023-03-02T19:45:58.721Z,67.17
2023-03-02T19:48:26.906Z,67.37
2023-03-02T19:50:54.988Z,67.50
2023-03-02T19:53:23.307Z,67.72
2023-03-02T19:55:52.657Z,67.67
2023-03-02T19:58:21.546Z,67.80
2023-03-02T20:00:49.732Z,67.95
2023-03-02T20:03:17.676Z,69.76
2023-03-02T20:05:45.617Z,68.89
2023-03-02T20:08:14.851Z,68.35
2023-03-02T20:10:49.435Z,68.35
2023-03-02T20:13:17.976Z,68.27
2023-03-02T20:15:47.308Z,68.41
2023-03-02T20:18:19.393Z,68.62
2023-03-02T20:20:48.638Z,68.91
2023-03-02T20:23:17.618Z,68.81
2023-03-02T20:25:48.229Z,68.83
2023-03-02T20:28:22.553Z,68.98
2023-03-02T20:30:58.744Z,69.07
2023-03-02T20:33:41.667Z,69.13
2023-03-02T20:36:11.566Z,69.26
2023-03-02T20:38:50.365Z,69.30
2023-03-02T20:41:18.923Z,69.35
2023-03-02T20:43:47.063Z,69.32
2023-03-02T20:46:24.238Z,69.34
2023-03-02T20:48:52.352Z,69.56
2023-03-02T20:51:21.877Z,69.65
2023-03-02T20:53:50.182Z,69.84
2023-03-02T20:56:18.754Z,69.82
2023-03-02T20:58:47.667Z,69.97
2023-03-02T21:01:17.072Z,70.18
2023-03-02T21:03:45.368Z,70.15
2023-03-02T21:06:15.250Z,70.25
2023-03-02T21:08:44.012Z,70.38
2023-03-02T21:11:16.391Z,70.41
2023-03-02T21:13:47.096Z,70.42
2023-03-02T21:16:27.481Z,70.45
2023-03-02T21:18:56.390Z,70.58
2023-03-02T21:21:39.425Z,70.76
2023-03-02T21:24:12.784Z,70.60
2023-03-02T21:26:41.774Z,70.79
2023-03-02T21:29:12.109Z,70.76
2023-03-02T21:31:42.339Z,70.72
2023-03-02T21:34:14.342Z,70.86
2023-03-02T21:36:42.832Z,71.11
2023-03-02T21:39:12.050Z,71.32
2023-03-02T21:41:40.409Z,71.43
2023-03-02T21:44:08.996Z,71.41
2023-03-02T21:46:38.697Z,71.44
2023-03-02T21:49:07.180Z,71.29
2023-03-02T21:51:35.384Z,71.41
2023-03-02T21:54:04.064Z,71.44
2023-03-02T21:56:31.952Z,71.34
2023-03-02T21:59:00.005Z,71.24
2023-03-02T22:01:29.797Z,71.26
2023-03-02T22:03:58.527Z,71.27
2023-03-02T22:06:30.298Z,71.31
2023-03-02T22:08:59.018Z,71.27
2023-03-02T22:11:32.793Z,71.22
2023-03-02T22:14:08.185Z,71.16
2023-03-02T22:16:39.597Z,71.42
2023-03-02T22:19:22.571Z,71.44
2023-03-02T22:21:52.142Z,71.31
2023-03-02T22:24:29.142Z,71.36
2023-03-02T22:27:27.591Z,71.30
2023-03-02T22:29:59.186Z,71.40
2023-03-02T22:32:30.480Z,71.37
2023-03-02T22:35:00.551Z,71.42
2023-03-02T22:37:33.057Z,71.55
2023-03-02T22:40:11.854Z,71.60
2023-03-02T22:42:40.058Z,71.64
2023-03-02T22:45:16.869Z,71.58
2023-03-02T22:47:49.128Z,71.54
2023-03-02T22:50:29.131Z,71.56
2023-03-02T22:53:02.178Z,71.75
2023-03-02T22:55:39.903Z,71.72
2023-03-02T22:58:32.166Z,71.84
2023-03-02T23:01:01.965Z,71.90
2023-03-02T23:03:39.906Z,71.92
2023-03-02T23:06:23.679Z,71.79
2023-03-02T23:08:53.401Z,71.82
2023-03-02T23:11:23.256Z,71.88
2023-03-02T23:13:52.459Z,72.10
2023-03-02T23:16:24.196Z,72.32
2023-03-02T23:18:54.993Z,72.49
2023-03-02T23:21:28.286Z,72.37
2023-03-02T23:23:56.489Z,72.17
2023-03-02T23:26:24.411Z,72.48
2023-03-02T23:28:52.311Z,72.55
2023-03-02T23:31:21.362Z,72.53
2023-03-02T23:33:49.452Z,72.50
2023-03-02T23:36:17.689Z,72.58
2023-03-02T23:38:45.591Z,72.61
2023-03-02T23:41:14.247Z,72.67
2023-03-02T23:43:42.102Z,72.63
2023-03-02T23:46:14.122Z,72.55
2023-03-02T23:48:43.179Z,72.68
2023-03-02T23:51:11.126Z,72.61
2023-03-02T23:53:39.102Z,72.52
2023-03-02T23:56:07.662Z,72.53
2023-03-02T23:58:35.605Z,72.51
